Huvudsida
METAR-TAF:

METAR-TAF

Flygplatser :

Notoddens flygplats. Tuven

Notoddens, Norge

latitud: 59-34N, longitud: 009-13E, höjd: 19 m

Aktuellt väderrapport

Denna rapport gjordes för 1 timme och 10 minuter sedan, klockan 15:50 UTC
Vind 8 kt från väst/nordväst
Temperatur 8°C
Fuktighet 39%
Tryck 1017 hPa
Sikt 10 km eller mer
Inga moln under 1 500 m eller inga cumulonimbus

METAR: ENNO 251550Z 29008KT CAVOK 08/M05 Q1017

Tid: 18:00 (17:00 UTC)

Väderprognos

Denna rapport gjordes för 6 timmar och 0 minuter sedan, klockan 11:00 UTC
Prognos gäller från 25 kl. 12 UTC till 25 kl. 18 UTC
Vind 8 kt från väst/nordväst
Sikt 10 km eller mer
Inga moln under 1 500 m eller inga cumulonimbus
Temporärt
från 25 kl. 16 UTC till 25 kl. 18 UTC
Vind 15 kt från nordväst i byarna ända upp till 25 kt

TAF: ENNO 251100Z 2512/2518 29008KT CAVOK TEMPO 2516/2518 31015G25KT

Aktuella väderrapporter och prognoser från 4000 flygplatser (METAR- och TAF-rapporter).

De tillgängliga stationerna syns som gula och röda prickar på kartan.

För musen över prickarna för att se namnen på stationerna.

Klicka sedan för att få väderrapporter och prognoser.

För att ändra kartan: Klicka på de gröna knapparna med ett svart kors på för att zooma in; den gröna knappen med ett streck på för att zooma ut; eller på de gröna pilarna för angränsande kartor.


METAR-TAF: